createdAt,value
2022-12-11T00:02:13.901Z,98570.56
2022-12-11T00:07:15.843Z,98565.38
2022-12-11T00:12:17.713Z,98555.09
2022-12-11T00:17:19.592Z,98568.03
2022-12-11T00:22:21.529Z,98561.09
2022-12-11T00:27:23.415Z,98555.84
2022-12-11T00:32:28.256Z,98551.56
2022-12-11T00:37:30.362Z,98554.16
2022-12-11T00:42:32.221Z,98565.38
2022-12-11T00:47:34.141Z,98555.94
2022-12-11T00:52:36.049Z,98563.69
2022-12-11T00:57:37.899Z,98568.88
2022-12-11T01:02:39.877Z,98580.16
2022-12-11T01:07:41.943Z,98583.59
2022-12-11T01:12:43.965Z,98589.59
2022-12-11T01:17:45.865Z,98590.50
2022-12-11T01:22:47.777Z,98585.34
2022-12-11T01:27:53.668Z,98581.84
2022-12-11T01:32:55.569Z,98585.34
2022-12-11T01:37:57.455Z,98587.94
2022-12-11T01:42:59.375Z,98583.66
2022-12-11T01:48:12.845Z,98587.94
2022-12-11T01:53:18.012Z,98593.13
2022-12-11T01:58:20.594Z,98597.50
2022-12-11T02:03:22.544Z,98603.53
2022-12-11T02:08:24.528Z,98595.81
2022-12-11T02:13:40.554Z,98595.81
2022-12-11T02:19:01.610Z,98607.88
2022-12-11T02:24:20.502Z,98613.94
2022-12-11T02:29:52.480Z,98619.94
2022-12-11T02:35:32.587Z,98627.69
2022-12-11T02:40:35.692Z,98624.28
2022-12-11T02:45:38.448Z,98632.00
2022-12-11T02:50:42.995Z,98639.78
2022-12-11T02:55:45.001Z,98650.97
2022-12-11T03:00:47.064Z,98657.88
2022-12-11T03:05:49.091Z,98655.28
2022-12-11T03:10:51.102Z,98664.78
2022-12-11T03:16:00.522Z,98676.84
2022-12-11T03:21:12.472Z,98668.25
2022-12-11T03:26:14.862Z,98669.97
2022-12-11T03:31:29.852Z,98676.88
2022-12-11T03:36:33.474Z,98693.25
2022-12-11T03:41:36.062Z,98692.38
2022-12-11T03:46:39.036Z,98679.44
2022-12-11T03:51:41.000Z,98687.22
2022-12-11T03:56:43.369Z,98710.50
2022-12-11T04:01:45.305Z,98721.69
2022-12-11T04:06:47.127Z,98724.28
2022-12-11T04:11:48.987Z,98738.94
2022-12-11T04:16:50.888Z,98751.00
2022-12-11T04:21:52.743Z,98744.09
2022-12-11T04:26:54.636Z,98732.88
2022-12-11T04:31:56.599Z,98743.19
2022-12-11T04:36:58.508Z,98749.22
2022-12-11T04:42:00.496Z,98741.47
2022-12-11T04:47:02.814Z,98736.25
2022-12-11T04:52:04.893Z,98721.63
2022-12-11T04:57:06.754Z,98731.03
2022-12-11T05:02:08.646Z,98736.25
2022-12-11T05:07:10.536Z,98744.88
2022-12-11T05:12:12.381Z,98749.16
2022-12-11T05:17:14.377Z,98761.25
2022-12-11T05:22:16.564Z,98759.53
2022-12-11T05:27:18.701Z,98766.41
2022-12-11T05:32:23.106Z,98786.19
2022-12-11T05:37:25.212Z,98787.06
2022-12-11T05:42:29.131Z,98804.25
2022-12-11T05:47:31.654Z,98814.59
2022-12-11T05:52:33.652Z,98817.19
2022-12-11T05:57:35.522Z,98827.50
2022-12-11T06:02:37.687Z,98842.16
2022-12-11T06:07:39.594Z,98849.91
2022-12-11T06:12:41.645Z,98857.72
2022-12-11T06:17:43.555Z,98882.75
2022-12-11T06:22:45.417Z,98891.31
2022-12-11T06:27:47.397Z,98888.72
2022-12-11T06:32:49.275Z,98888.66
2022-12-11T06:37:51.079Z,98895.63
2022-12-11T06:42:53.945Z,98900.78
2022-12-11T06:47:55.811Z,98890.50
2022-12-11T06:52:57.731Z,98875.88
2022-12-11T06:57:59.652Z,98870.66
2022-12-11T07:03:01.443Z,98881.00
2022-12-11T07:08:03.510Z,98899.09
2022-12-11T07:13:05.739Z,98897.44
2022-12-11T07:18:07.686Z,98900.06
2022-12-11T07:23:09.424Z,98912.97
2022-12-11T07:28:16.546Z,98909.53
2022-12-11T07:33:18.682Z,98902.63
2022-12-11T07:38:20.620Z,98920.78
2022-12-11T07:43:22.510Z,98921.69
2022-12-11T07:48:24.445Z,98904.41
2022-12-11T07:53:26.451Z,98926.84
2022-12-11T07:58:28.328Z,98918.25
2022-12-11T08:03:30.177Z,98923.34
2022-12-11T08:08:32.140Z,98932.94
2022-12-11T08:13:34.075Z,98949.31
2022-12-11T08:18:36.850Z,98945.00
2022-12-11T08:23:38.760Z,98942.41
2022-12-11T08:28:40.584Z,98944.16
2022-12-11T08:33:43.487Z,98963.13
2022-12-11T08:38:45.480Z,98970.13
2022-12-11T08:43:47.384Z,98978.78
2022-12-11T08:48:49.417Z,98984.09
2022-12-11T08:53:51.236Z,98995.25
2022-12-11T08:58:53.202Z,98998.72
2022-12-11T09:03:55.630Z,98996.09
2022-12-11T09:08:59.968Z,98988.34
2022-12-11T09:14:07.236Z,98977.13
2022-12-11T09:19:12.565Z,98982.28
2022-12-11T09:24:14.626Z,98997.81
2022-12-11T09:29:16.586Z,99006.41
2022-12-11T09:34:18.436Z,98999.53
2022-12-11T09:39:20.332Z,99004.63
2022-12-11T09:44:43.774Z,99002.03
2022-12-11T09:49:45.756Z,99021.78
2022-12-11T09:54:53.036Z,99047.72
2022-12-11T10:00:06.947Z,99063.28
2022-12-11T10:05:32.288Z,99055.50
2022-12-11T10:10:53.854Z,99048.63
2022-12-11T10:16:00.394Z,99048.53
2022-12-11T10:21:02.410Z,99031.22
2022-12-11T10:26:08.865Z,99031.22
2022-12-11T10:31:20.321Z,99029.63
2022-12-11T10:36:32.980Z,99013.25
2022-12-11T10:41:38.879Z,99017.59
2022-12-11T10:46:40.866Z,99011.59
2022-12-11T10:51:43.876Z,99021.91
2022-12-11T10:56:47.038Z,99021.78
2022-12-11T11:01:48.906Z,99033.72
2022-12-11T11:07:24.383Z,99045.69
2022-12-11T11:12:27.189Z,99024.25
2022-12-11T11:17:34.450Z,99026.78
2022-12-11T11:22:42.920Z,99019.84
2022-12-11T11:27:46.536Z,99010.44
2022-12-11T11:32:48.408Z,99011.22
2022-12-11T11:38:16.375Z,99011.13
2022-12-11T11:43:30.801Z,99011.06
2022-12-11T11:48:59.440Z,99017.13
2022-12-11T11:54:03.184Z,99000.63
2022-12-11T11:59:19.463Z,99002.28
2022-12-11T12:04:21.360Z,98999.78
2022-12-11T12:09:45.475Z,99002.50
2022-12-11T12:14:54.804Z,98994.81
2022-12-11T12:20:08.852Z,99009.50
2022-12-11T12:25:16.863Z,99004.13
2022-12-11T12:30:22.403Z,99017.94
2022-12-11T12:35:35.468Z,99023.09
2022-12-11T12:40:52.410Z,99029.25
2022-12-11T12:46:27.694Z,99012.78
2022-12-11T12:51:29.553Z,99006.75
2022-12-11T12:56:31.943Z,99017.91
2022-12-11T13:01:34.004Z,99017.13
2022-12-11T13:06:44.048Z,98999.91
2022-12-11T13:11:46.677Z,99014.53
2022-12-11T13:16:48.963Z,99004.03
2022-12-11T13:22:03.408Z,99001.47
2022-12-11T13:27:09.832Z,99013.50
2022-12-11T13:32:11.594Z,99023.06
2022-12-11T13:37:31.285Z,99007.66
2022-12-11T13:42:50.985Z,98997.31
2022-12-11T13:47:52.898Z,98982.53
2022-12-11T13:52:55.907Z,98966.16
2022-12-11T13:57:57.815Z,98947.16
2022-12-11T14:03:02.100Z,98950.66
2022-12-11T14:08:07.532Z,98945.41
2022-12-11T14:13:24.045Z,98940.19
2022-12-11T14:18:28.575Z,98931.63
2022-12-11T14:23:32.117Z,98928.22
2022-12-11T14:28:38.449Z,98934.31
2022-12-11T14:33:52.318Z,98918.81
2022-12-11T14:39:17.195Z,98943.84
2022-12-11T14:44:19.166Z,98889.50
2022-12-11T14:49:34.032Z,98906.69
2022-12-11T14:54:41.315Z,98904.94
2022-12-11T14:59:45.718Z,98900.59
2022-12-11T15:05:00.353Z,98902.25
2022-12-11T15:10:02.262Z,98899.75
2022-12-11T15:15:05.561Z,98897.94
2022-12-11T15:20:20.109Z,98885.09
2022-12-11T15:25:26.515Z,98874.88
2022-12-11T15:30:33.718Z,98867.09
2022-12-11T15:35:35.571Z,98848.16
2022-12-11T15:40:37.447Z,98836.09
2022-12-11T15:45:39.247Z,98857.59
2022-12-11T15:50:41.064Z,98837.84
2022-12-11T15:55:42.966Z,98809.44
2022-12-11T16:00:44.754Z,98826.63
2022-12-11T16:05:46.641Z,98835.97
2022-12-11T16:10:49.075Z,98808.56
2022-12-11T16:15:51.298Z,98804.25
2022-12-11T16:20:53.206Z,98787.00
2022-12-11T16:25:55.036Z,98778.44
2022-12-11T16:30:56.997Z,98765.53
2022-12-11T16:35:58.855Z,98759.47
2022-12-11T16:41:01.442Z,98741.38
2022-12-11T16:46:03.117Z,98753.38
2022-12-11T16:51:05.187Z,98739.59
2022-12-11T16:56:07.568Z,98711.19
2022-12-11T17:01:13.196Z,98700.88
2022-12-11T17:06:16.263Z,98696.59
2022-12-11T17:11:19.480Z,98678.50
2022-12-11T17:16:21.368Z,98684.50
2022-12-11T17:21:23.510Z,98666.44
2022-12-11T17:26:25.433Z,98650.06
2022-12-11T17:31:27.421Z,98631.97
2022-12-11T17:36:29.350Z,98640.63
2022-12-11T17:41:31.345Z,98654.41
2022-12-11T17:46:33.433Z,98635.44
2022-12-11T17:51:53.110Z,98619.09
2022-12-11T17:56:54.991Z,98619.09
2022-12-11T18:01:56.873Z,98615.66
2022-12-11T18:07:13.744Z,98621.69
2022-12-11T18:12:18.624Z,98613.09
2022-12-11T18:17:20.499Z,98602.75
2022-12-11T18:22:22.375Z,98595.84
2022-12-11T18:27:24.993Z,98589.81
2022-12-11T18:32:26.665Z,98628.59
2022-12-11T18:37:28.565Z,98632.03
2022-12-11T18:42:33.167Z,98605.31
2022-12-11T18:47:35.456Z,98610.47
2022-12-11T18:52:37.221Z,98610.44
2022-12-11T18:57:39.086Z,98616.47
2022-12-11T19:02:40.964Z,98604.41
2022-12-11T19:07:42.888Z,98585.38
2022-12-11T19:12:44.795Z,98580.22
2022-12-11T19:17:46.776Z,98554.31
2022-12-11T19:22:48.678Z,98550.88
2022-12-11T19:27:50.578Z,98535.34
2022-12-11T19:32:52.514Z,98533.63
2022-12-11T19:37:55.731Z,98530.97
2022-12-11T19:42:57.696Z,98524.91
2022-12-11T19:47:59.572Z,98525.78
2022-12-11T19:53:01.474Z,98523.19
2022-12-11T19:58:03.407Z,98515.41
2022-12-11T20:03:05.336Z,98511.06
2022-12-11T20:08:35.652Z,98505.88
2022-12-11T20:13:29.211Z,98511.91
2022-12-11T20:18:31.086Z,98502.41
2022-12-11T20:23:33.508Z,98483.38
2022-12-11T20:28:35.461Z,98487.66
2022-12-11T20:33:37.541Z,98456.59
2022-12-11T20:38:40.063Z,98440.19
2022-12-11T20:43:41.964Z,98436.72
2022-12-11T20:48:44.012Z,98426.34
2022-12-11T20:53:45.912Z,98419.41
2022-12-11T20:58:47.763Z,98419.38
2022-12-11T21:03:49.706Z,98408.97
2022-12-11T21:08:52.305Z,98394.25
2022-12-11T21:13:54.046Z,98405.50
2022-12-11T21:18:56.458Z,98384.78
2022-12-11T21:23:58.374Z,98383.88
2022-12-11T21:29:00.382Z,98377.81
2022-12-11T21:34:02.326Z,98350.16
2022-12-11T21:39:04.428Z,98352.72
2022-12-11T21:49:28.213Z,98308.63
2022-12-11T21:54:30.110Z,98284.44
2022-12-11T21:59:32.146Z,98282.72
2022-12-11T22:04:34.050Z,98254.19
2022-12-11T22:09:35.950Z,98244.53
2022-12-11T22:14:37.800Z,98236.66
2022-12-11T22:19:39.796Z,98213.31
2022-12-11T22:24:41.725Z,98235.75
2022-12-11T22:29:43.631Z,98206.28
2022-12-11T22:34:45.483Z,98192.47
2022-12-11T22:39:47.415Z,98178.66
2022-12-11T22:44:49.251Z,98162.91
2022-12-11T22:49:51.131Z,98168.00
2022-12-11T22:54:53.119Z,98146.28
2022-12-11T22:59:55.057Z,98147.06
2022-12-11T23:04:56.929Z,98131.38
2022-12-11T23:09:58.821Z,98090.63
2022-12-11T23:15:00.655Z,98100.06
2022-12-11T23:20:02.712Z,98086.91
2022-12-11T23:25:05.653Z,98058.34
2022-12-11T23:30:07.970Z,98049.56
2022-12-11T23:35:10.214Z,98039.00
2022-12-11T23:40:12.551Z,98031.16
2022-12-11T23:45:14.995Z,98032.72
2022-12-11T23:50:17.129Z,98000.53
2022-12-11T23:55:19.189Z,98013.34
